sensor_id;sensor_type;location;lat;lon;timestamp;temperature;humidity
13093;DHT22;6612;49.568;11.000;2023-03-01T00:00:03;2.20;45.50
13093;DHT22;6612;49.568;11.000;2023-03-01T00:02:29;2.10;45.50
13093;DHT22;6612;49.568;11.000;2023-03-01T00:04:58;2.10;45.50
13093;DHT22;6612;49.568;11.000;2023-03-01T00:07:25;2.10;45.60
13093;DHT22;6612;49.568;11.000;2023-03-01T00:09:52;2.10;45.60
13093;DHT22;6612;49.568;11.000;2023-03-01T00:12:19;2.00;46.20
13093;DHT22;6612;49.568;11.000;2023-03-01T00:14:46;2.00;45.60
13093;DHT22;6612;49.568;11.000;2023-03-01T00:17:13;2.00;45.60
13093;DHT22;6612;49.568;11.000;2023-03-01T00:19:40;2.00;45.70
13093;DHT22;6612;49.568;11.000;2023-03-01T00:22:09;2.00;46.40
13093;DHT22;6612;49.568;11.000;2023-03-01T00:24:36;2.00;45.80
13093;DHT22;6612;49.568;11.000;2023-03-01T00:27:03;1.90;45.70
13093;DHT22;6612;49.568;11.000;2023-03-01T00:29:29;1.90;45.80
13093;DHT22;6612;49.568;11.000;2023-03-01T00:31:56;1.90;45.90
13093;DHT22;6612;49.568;11.000;2023-03-01T00:34:23;1.90;45.90
13093;DHT22;6612;49.568;11.000;2023-03-01T00:36:50;1.90;46.00
13093;DHT22;6612;49.568;11.000;2023-03-01T00:39:18;1.90;46.00
13093;DHT22;6612;49.568;11.000;2023-03-01T00:41:45;1.90;46.20
13093;DHT22;6612;49.568;11.000;2023-03-01T00:44:12;1.90;46.10
13093;DHT22;6612;49.568;11.000;2023-03-01T00:46:39;1.80;46.20
13093;DHT22;6612;49.568;11.000;2023-03-01T00:49:06;1.80;46.10
13093;DHT22;6612;49.568;11.000;2023-03-01T00:51:33;1.80;46.20
13093;DHT22;6612;49.568;11.000;2023-03-01T00:54:02;1.80;46.20
13093;DHT22;6612;49.568;11.000;2023-03-01T00:56:31;1.80;46.30
13093;DHT22;6612;49.568;11.000;2023-03-01T00:58:58;1.70;46.30
13093;DHT22;6612;49.568;11.000;2023-03-01T01:01:27;1.70;46.90
13093;DHT22;6612;49.568;11.000;2023-03-01T01:03:58;1.70;46.40
13093;DHT22;6612;49.568;11.000;2023-03-01T01:06:27;1.70;46.50
13093;DHT22;6612;49.568;11.000;2023-03-01T01:08:55;1.60;46.40
13093;DHT22;6612;49.568;11.000;2023-03-01T01:11:26;1.70;46.40
13093;DHT22;6612;49.568;11.000;2023-03-01T01:13:55;1.70;46.50
13093;DHT22;6612;49.568;11.000;2023-03-01T01:16:24;1.70;46.60
13093;DHT22;6612;49.568;11.000;2023-03-01T01:18:51;1.70;46.60
13093;DHT22;6612;49.568;11.000;2023-03-01T01:21:20;1.70;46.60
13093;DHT22;6612;49.568;11.000;2023-03-01T01:23:48;1.70;46.70
13093;DHT22;6612;49.568;11.000;2023-03-01T01:26:17;1.70;46.70
13093;DHT22;6612;49.568;11.000;2023-03-01T01:28:45;2.00;46.90
13093;DHT22;6612;49.568;11.000;2023-03-01T01:31:13;1.80;46.60
13093;DHT22;6612;49.568;11.000;2023-03-01T01:33:40;1.80;46.70
13093;DHT22;6612;49.568;11.000;2023-03-01T01:36:08;1.70;46.50
13093;DHT22;6612;49.568;11.000;2023-03-01T01:38:36;1.80;46.60
13093;DHT22;6612;49.568;11.000;2023-03-01T01:41:04;1.80;47.20
13093;DHT22;6612;49.568;11.000;2023-03-01T01:43:34;1.80;46.50
13093;DHT22;6612;49.568;11.000;2023-03-01T01:46:04;1.80;46.60
13093;DHT22;6612;49.568;11.000;2023-03-01T01:48:38;1.80;46.60
13093;DHT22;6612;49.568;11.000;2023-03-01T01:51:09;1.80;46.70
13093;DHT22;6612;49.568;11.000;2023-03-01T01:53:37;1.80;46.60
13093;DHT22;6612;49.568;11.000;2023-03-01T01:56:08;1.70;46.50
13093;DHT22;6612;49.568;11.000;2023-03-01T01:58:36;1.70;46.50
13093;DHT22;6612;49.568;11.000;2023-03-01T02:01:04;1.70;46.50
13093;DHT22;6612;49.568;11.000;2023-03-01T02:03:34;1.70;46.50
13093;DHT22;6612;49.568;11.000;2023-03-01T02:06:11;1.70;46.50
13093;DHT22;6612;49.568;11.000;2023-03-01T02:08:40;1.70;46.60
13093;DHT22;6612;49.568;11.000;2023-03-01T02:11:09;1.70;46.60
13093;DHT22;6612;49.568;11.000;2023-03-01T02:13:37;1.70;46.50
13093;DHT22;6612;49.568;11.000;2023-03-01T02:16:05;1.60;46.50
13093;DHT22;6612;49.568;11.000;2023-03-01T02:18:38;1.60;46.60
13093;DHT22;6612;49.568;11.000;2023-03-01T02:21:14;1.60;46.60
13093;DHT22;6612;49.568;11.000;2023-03-01T02:23:44;1.50;46.70
13093;DHT22;6612;49.568;11.000;2023-03-01T02:26:18;1.50;46.50
13093;DHT22;6612;49.568;11.000;2023-03-01T02:28:48;1.50;46.80
13093;DHT22;6612;49.568;11.000;2023-03-01T02:31:17;1.50;46.60
13093;DHT22;6612;49.568;11.000;2023-03-01T02:34:03;1.50;46.70
13093;DHT22;6612;49.568;11.000;2023-03-01T02:36:35;1.40;46.60
13093;DHT22;6612;49.568;11.000;2023-03-01T02:39:05;1.40;46.70
13093;DHT22;6612;49.568;11.000;2023-03-01T02:41:36;1.40;46.70
13093;DHT22;6612;49.568;11.000;2023-03-01T02:44:05;1.40;46.80
13093;DHT22;6612;49.568;11.000;2023-03-01T02:46:34;1.30;46.80
13093;DHT22;6612;49.568;11.000;2023-03-01T02:49:19;1.30;46.80
13093;DHT22;6612;49.568;11.000;2023-03-01T02:51:52;1.30;47.10
13093;DHT22;6612;49.568;11.000;2023-03-01T02:54:26;1.30;46.90
13093;DHT22;6612;49.568;11.000;2023-03-01T02:56:55;1.30;47.00
13093;DHT22;6612;49.568;11.000;2023-03-01T02:59:27;1.30;46.90
13093;DHT22;6612;49.568;11.000;2023-03-01T03:01:55;1.20;47.00
13093;DHT22;6612;49.568;11.000;2023-03-01T03:04:22;1.20;46.90
13093;DHT22;6612;49.568;11.000;2023-03-01T03:06:50;1.10;47.10
13093;DHT22;6612;49.568;11.000;2023-03-01T03:09:18;1.20;47.00
13093;DHT22;6612;49.568;11.000;2023-03-01T03:11:45;1.10;47.00
13093;DHT22;6612;49.568;11.000;2023-03-01T03:14:13;1.10;47.00
13093;DHT22;6612;49.568;11.000;2023-03-01T03:16:43;1.10;47.10
13093;DHT22;6612;49.568;11.000;2023-03-01T03:19:11;1.10;47.20
13093;DHT22;6612;49.568;11.000;2023-03-01T03:21:38;1.10;47.30
13093;DHT22;6612;49.568;11.000;2023-03-01T03:24:05;1.10;47.20
13093;DHT22;6612;49.568;11.000;2023-03-01T03:26:32;1.00;47.20
13093;DHT22;6612;49.568;11.000;2023-03-01T03:28:59;1.00;47.30
13093;DHT22;6612;49.568;11.000;2023-03-01T03:31:27;1.00;47.30
13093;DHT22;6612;49.568;11.000;2023-03-01T03:33:55;1.00;47.40
13093;DHT22;6612;49.568;11.000;2023-03-01T03:36:24;1.00;47.50
13093;DHT22;6612;49.568;11.000;2023-03-01T03:38:51;1.00;47.50
13093;DHT22;6612;49.568;11.000;2023-03-01T03:41:18;1.00;47.50
13093;DHT22;6612;49.568;11.000;2023-03-01T03:43:45;0.90;47.30
13093;DHT22;6612;49.568;11.000;2023-03-01T03:46:12;0.90;47.40
13093;DHT22;6612;49.568;11.000;2023-03-01T03:48:41;0.90;47.40
13093;DHT22;6612;49.568;11.000;2023-03-01T03:51:12;0.90;47.40
13093;DHT22;6612;49.568;11.000;2023-03-01T03:53:40;0.90;47.60
13093;DHT22;6612;49.568;11.000;2023-03-01T03:56:07;0.90;47.50
13093;DHT22;6612;49.568;11.000;2023-03-01T03:58:35;0.90;47.50
13093;DHT22;6612;49.568;11.000;2023-03-01T04:01:02;0.90;47.50
13093;DHT22;6612;49.568;11.000;2023-03-01T04:03:30;0.90;47.60
13093;DHT22;6612;49.568;11.000;2023-03-01T04:05:59;0.90;47.60
13093;DHT22;6612;49.568;11.000;2023-03-01T04:08:28;1.00;47.80
13093;DHT22;6612;49.568;11.000;2023-03-01T04:10:59;1.00;47.70
13093;DHT22;6612;49.568;11.000;2023-03-01T04:13:46;1.10;47.70
13093;DHT22;6612;49.568;11.000;2023-03-01T04:16:13;1.10;47.50
13093;DHT22;6612;49.568;11.000;2023-03-01T04:18:40;1.20;47.50
13093;DHT22;6612;49.568;11.000;2023-03-01T04:21:07;1.20;47.50
13093;DHT22;6612;49.568;11.000;2023-03-01T04:23:35;1.20;47.30
13093;DHT22;6612;49.568;11.000;2023-03-01T04:26:03;1.30;47.50
13093;DHT22;6612;49.568;11.000;2023-03-01T04:28:31;1.30;47.40
13093;DHT22;6612;49.568;11.000;2023-03-01T04:31:03;1.30;47.30
13093;DHT22;6612;49.568;11.000;2023-03-01T04:33:38;1.40;47.40
13093;DHT22;6612;49.568;11.000;2023-03-01T04:36:05;1.30;47.10
13093;DHT22;6612;49.568;11.000;2023-03-01T04:38:36;1.40;47.20
13093;DHT22;6612;49.568;11.000;2023-03-01T04:41:04;1.50;47.30
13093;DHT22;6612;49.568;11.000;2023-03-01T04:43:31;1.50;47.20
13093;DHT22;6612;49.568;11.000;2023-03-01T04:46:03;1.50;47.20
13093;DHT22;6612;49.568;11.000;2023-03-01T04:48:31;1.50;47.30
13093;DHT22;6612;49.568;11.000;2023-03-01T04:50:59;1.50;47.10
13093;DHT22;6612;49.568;11.000;2023-03-01T04:53:27;1.50;47.10
13093;DHT22;6612;49.568;11.000;2023-03-01T04:55:56;1.50;47.10
13093;DHT22;6612;49.568;11.000;2023-03-01T04:58:23;1.50;47.10
13093;DHT22;6612;49.568;11.000;2023-03-01T05:00:51;1.50;47.10
13093;DHT22;6612;49.568;11.000;2023-03-01T05:03:18;1.50;47.00
13093;DHT22;6612;49.568;11.000;2023-03-01T05:05:47;1.50;47.00
13093;DHT22;6612;49.568;11.000;2023-03-01T05:08:14;1.50;47.00
13093;DHT22;6612;49.568;11.000;2023-03-01T05:10:45;1.50;47.00
13093;DHT22;6612;49.568;11.000;2023-03-01T05:13:14;1.50;47.10
13093;DHT22;6612;49.568;11.000;2023-03-01T05:15:46;1.40;47.00
13093;DHT22;6612;49.568;11.000;2023-03-01T05:18:13;1.50;47.10
13093;DHT22;6612;49.568;11.000;2023-03-01T05:20:40;1.40;47.00
13093;DHT22;6612;49.568;11.000;2023-03-01T05:23:07;1.40;47.00
13093;DHT22;6612;49.568;11.000;2023-03-01T05:25:34;1.30;47.00
13093;DHT22;6612;49.568;11.000;2023-03-01T05:28:06;1.30;47.10
13093;DHT22;6612;49.568;11.000;2023-03-01T05:30:36;1.30;47.20
13093;DHT22;6612;49.568;11.000;2023-03-01T05:33:04;1.20;47.20
13093;DHT22;6612;49.568;11.000;2023-03-01T05:35:39;1.20;47.80
13093;DHT22;6612;49.568;11.000;2023-03-01T05:38:06;1.20;47.30
13093;DHT22;6612;49.568;11.000;2023-03-01T05:40:34;1.20;47.30
13093;DHT22;6612;49.568;11.000;2023-03-01T05:43:01;1.10;47.30
13093;DHT22;6612;49.568;11.000;2023-03-01T05:45:31;1.00;47.30
13093;DHT22;6612;49.568;11.000;2023-03-01T05:48:00;1.10;47.50
13093;DHT22;6612;49.568;11.000;2023-03-01T05:50:28;1.10;47.50
13093;DHT22;6612;49.568;11.000;2023-03-01T05:53:00;1.10;47.60
13093;DHT22;6612;49.568;11.000;2023-03-01T05:55:29;1.10;47.70
13093;DHT22;6612;49.568;11.000;2023-03-01T05:57:58;1.10;47.60
13093;DHT22;6612;49.568;11.000;2023-03-01T06:00:26;1.10;47.70
13093;DHT22;6612;49.568;11.000;2023-03-01T06:02:54;1.10;47.70
13093;DHT22;6612;49.568;11.000;2023-03-01T06:05:23;1.10;47.80
13093;DHT22;6612;49.568;11.000;2023-03-01T06:07:50;1.10;47.80
13093;DHT22;6612;49.568;11.000;2023-03-01T06:10:19;1.10;47.80
13093;DHT22;6612;49.568;11.000;2023-03-01T06:12:46;1.10;47.90
13093;DHT22;6612;49.568;11.000;2023-03-01T06:15:14;1.10;47.90
13093;DHT22;6612;49.568;11.000;2023-03-01T06:17:43;1.10;48.00
13093;DHT22;6612;49.568;11.000;2023-03-01T06:20:13;1.10;48.10
13093;DHT22;6612;49.568;11.000;2023-03-01T06:22:42;1.10;48.10
13093;DHT22;6612;49.568;11.000;2023-03-01T06:25:16;1.10;48.10
13093;DHT22;6612;49.568;11.000;2023-03-01T06:27:44;1.10;48.30
13093;DHT22;6612;49.568;11.000;2023-03-01T06:30:13;1.10;48.20
13093;DHT22;6612;49.568;11.000;2023-03-01T06:32:40;1.20;48.40
13093;DHT22;6612;49.568;11.000;2023-03-01T06:35:09;1.20;48.40
13093;DHT22;6612;49.568;11.000;2023-03-01T06:37:36;1.30;48.80
13093;DHT22;6612;49.568;11.000;2023-03-01T06:40:06;1.40;49.60
13093;DHT22;6612;49.568;11.000;2023-03-01T06:42:34;1.60;50.30
13093;DHT22;6612;49.568;11.000;2023-03-01T06:45:01;1.80;50.60
13093;DHT22;6612;49.568;11.000;2023-03-01T06:47:27;2.00;50.90
13093;DHT22;6612;49.568;11.000;2023-03-01T06:49:54;2.30;51.70
13093;DHT22;6612;49.568;11.000;2023-03-01T06:52:21;2.60;51.30
13093;DHT22;6612;49.568;11.000;2023-03-01T06:54:48;2.70;51.30
13093;DHT22;6612;49.568;11.000;2023-03-01T06:57:17;3.10;52.30
13093;DHT22;6612;49.568;11.000;2023-03-01T06:59:43;3.50;52.40
13093;DHT22;6612;49.568;11.000;2023-03-01T07:02:11;4.00;53.80
13093;DHT22;6612;49.568;11.000;2023-03-01T07:04:38;4.50;53.80
13093;DHT22;6612;49.568;11.000;2023-03-01T07:07:05;5.00;53.90
13093;DHT22;6612;49.568;11.000;2023-03-01T07:09:32;5.60;53.80
13093;DHT22;6612;49.568;11.000;2023-03-01T07:11:59;6.10;53.90
13093;DHT22;6612;49.568;11.000;2023-03-01T07:14:28;6.70;53.90
13093;DHT22;6612;49.568;11.000;2023-03-01T07:16:55;7.30;53.20
13093;DHT22;6612;49.568;11.000;2023-03-01T07:19:22;7.90;52.60
13093;DHT22;6612;49.568;11.000;2023-03-01T07:21:49;8.40;51.50
13093;DHT22;6612;49.568;11.000;2023-03-01T07:24:16;8.80;50.60
13093;DHT22;6612;49.568;11.000;2023-03-01T07:26:43;9.30;50.10
13093;DHT22;6612;49.568;11.000;2023-03-01T07:29:10;9.80;49.60
13093;DHT22;6612;49.568;11.000;2023-03-01T07:31:38;10.10;48.00
13093;DHT22;6612;49.568;11.000;2023-03-01T07:34:05;10.50;47.70
13093;DHT22;6612;49.568;11.000;2023-03-01T07:36:32;10.80;47.60
13093;DHT22;6612;49.568;11.000;2023-03-01T07:38:59;11.30;47.50
13093;DHT22;6612;49.568;11.000;2023-03-01T07:41:28;11.60;46.70
13093;DHT22;6612;49.568;11.000;2023-03-01T07:43:56;11.90;46.20
13093;DHT22;6612;49.568;11.000;2023-03-01T07:46:23;12.30;45.80
13093;DHT22;6612;49.568;11.000;2023-03-01T07:48:51;12.60;45.40
13093;DHT22;6612;49.568;11.000;2023-03-01T07:51:18;12.90;45.60
13093;DHT22;6612;49.568;11.000;2023-03-01T07:53:46;13.20;44.70
13093;DHT22;6612;49.568;11.000;2023-03-01T07:56:14;13.50;44.00
13093;DHT22;6612;49.568;11.000;2023-03-01T07:58:44;13.70;43.50
13093;DHT22;6612;49.568;11.000;2023-03-01T08:01:13;13.90;42.40
13093;DHT22;6612;49.568;11.000;2023-03-01T08:03:41;13.90;40.50
13093;DHT22;6612;49.568;11.000;2023-03-01T08:06:12;13.80;39.70
13093;DHT22;6612;49.568;11.000;2023-03-01T08:08:40;13.50;38.50
13093;DHT22;6612;49.568;11.000;2023-03-01T08:11:09;13.30;38.40
13093;DHT22;6612;49.568;11.000;2023-03-01T08:13:36;13.10;38.40
13093;DHT22;6612;49.568;11.000;2023-03-01T08:16:05;12.90;38.30
13093;DHT22;6612;49.568;11.000;2023-03-01T08:18:32;12.60;38.00
13093;DHT22;6612;49.568;11.000;2023-03-01T08:21:02;12.40;37.80
13093;DHT22;6612;49.568;11.000;2023-03-01T08:23:30;12.10;37.00
13093;DHT22;6612;49.568;11.000;2023-03-01T08:26:04;11.80;37.00
13093;DHT22;6612;49.568;11.000;2023-03-01T08:28:31;11.60;37.30
13093;DHT22;6612;49.568;11.000;2023-03-01T08:30:58;11.50;38.30
13093;DHT22;6612;49.568;11.000;2023-03-01T08:33:25;11.30;38.20
13093;DHT22;6612;49.568;11.000;2023-03-01T08:35:52;11.30;38.60
13093;DHT22;6612;49.568;11.000;2023-03-01T08:38:19;11.30;37.70
13093;DHT22;6612;49.568;11.000;2023-03-01T08:40:47;11.30;38.20
13093;DHT22;6612;49.568;11.000;2023-03-01T08:43:14;11.40;38.60
13093;DHT22;6612;49.568;11.000;2023-03-01T08:45:41;11.60;38.80
13093;DHT22;6612;49.568;11.000;2023-03-01T08:48:08;11.90;39.80
13093;DHT22;6612;49.568;11.000;2023-03-01T08:50:34;12.20;39.60
13093;DHT22;6612;49.568;11.000;2023-03-01T08:53:01;12.50;38.70
13093;DHT22;6612;49.568;11.000;2023-03-01T08:55:28;12.60;37.20
13093;DHT22;6612;49.568;11.000;2023-03-01T08:57:56;12.60;36.70
13093;DHT22;6612;49.568;11.000;2023-03-01T09:00:25;12.40;36.00
13093;DHT22;6612;49.568;11.000;2023-03-01T09:02:52;12.20;35.80
13093;DHT22;6612;49.568;11.000;2023-03-01T09:05:19;12.00;35.50
13093;DHT22;6612;49.568;11.000;2023-03-01T09:07:45;11.70;34.30
13093;DHT22;6612;49.568;11.000;2023-03-01T09:10:12;11.40;34.40
13093;DHT22;6612;49.568;11.000;2023-03-01T09:12:39;11.10;34.70
13093;DHT22;6612;49.568;11.000;2023-03-01T09:15:09;10.90;35.00
13093;DHT22;6612;49.568;11.000;2023-03-01T09:17:36;10.70;35.50
13093;DHT22;6612;49.568;11.000;2023-03-01T09:20:04;10.70;35.60
13093;DHT22;6612;49.568;11.000;2023-03-01T09:22:33;10.70;36.30
13093;DHT22;6612;49.568;11.000;2023-03-01T09:25:00;10.70;35.10
13093;DHT22;6612;49.568;11.000;2023-03-01T09:27:27;10.70;34.40
13093;DHT22;6612;49.568;11.000;2023-03-01T09:29:54;10.60;35.10
13093;DHT22;6612;49.568;11.000;2023-03-01T09:32:23;10.50;35.70
13093;DHT22;6612;49.568;11.000;2023-03-01T09:34:50;10.30;34.40
13093;DHT22;6612;49.568;11.000;2023-03-01T09:37:31;10.30;36.00
13093;DHT22;6612;49.568;11.000;2023-03-01T09:39:58;10.30;36.90
13093;DHT22;6612;49.568;11.000;2023-03-01T09:42:26;10.30;37.10
13093;DHT22;6612;49.568;11.000;2023-03-01T09:44:57;10.60;37.50
13093;DHT22;6612;49.568;11.000;2023-03-01T09:47:29;10.80;37.40
13093;DHT22;6612;49.568;11.000;2023-03-01T09:50:03;11.00;36.90
13093;DHT22;6612;49.568;11.000;2023-03-01T09:52:36;11.20;36.50
13093;DHT22;6612;49.568;11.000;2023-03-01T09:55:11;11.30;36.70
13093;DHT22;6612;49.568;11.000;2023-03-01T09:57:43;11.50;36.50
13093;DHT22;6612;49.568;11.000;2023-03-01T10:00:29;11.60;36.90
13093;DHT22;6612;49.568;11.000;2023-03-01T10:03:03;11.80;36.50
13093;DHT22;6612;49.568;11.000;2023-03-01T10:05:44;11.90;36.50
13093;DHT22;6612;49.568;11.000;2023-03-01T10:08:33;11.90;36.10
13093;DHT22;6612;49.568;11.000;2023-03-01T10:11:02;12.00;34.70
13093;DHT22;6612;49.568;11.000;2023-03-01T10:13:36;11.90;34.70
13093;DHT22;6612;49.568;11.000;2023-03-01T10:16:12;11.90;34.30
13093;DHT22;6612;49.568;11.000;2023-03-01T10:18:43;11.80;34.50
13093;DHT22;6612;49.568;11.000;2023-03-01T10:21:15;11.70;34.60
13093;DHT22;6612;49.568;11.000;2023-03-01T10:23:44;11.70;35.10
13093;DHT22;6612;49.568;11.000;2023-03-01T10:26:20;11.80;36.10
13093;DHT22;6612;49.568;11.000;2023-03-01T10:28:59;11.90;35.80
13093;DHT22;6612;49.568;11.000;2023-03-01T10:31:38;12.10;36.20
13093;DHT22;6612;49.568;11.000;2023-03-01T10:34:10;12.30;35.50
13093;DHT22;6612;49.568;11.000;2023-03-01T10:36:39;12.40;35.00
13093;DHT22;6612;49.568;11.000;2023-03-01T10:39:13;12.50;34.70
13093;DHT22;6612;49.568;11.000;2023-03-01T10:41:53;12.50;35.10
13093;DHT22;6612;49.568;11.000;2023-03-01T10:44:43;12.50;32.80
13093;DHT22;6612;49.568;11.000;2023-03-01T10:47:16;12.60;32.00
13093;DHT22;6612;49.568;11.000;2023-03-01T10:50:09;12.60;34.00
13093;DHT22;6612;49.568;11.000;2023-03-01T10:52:56;12.70;34.00
13093;DHT22;6612;49.568;11.000;2023-03-01T10:55:28;13.00;34.50
13093;DHT22;6612;49.568;11.000;2023-03-01T10:58:08;13.10;34.50
13093;DHT22;6612;49.568;11.000;2023-03-01T11:00:47;13.30;34.00
13093;DHT22;6612;49.568;11.000;2023-03-01T11:03:18;13.30;33.30
13093;DHT22;6612;49.568;11.000;2023-03-01T11:05:54;13.20;31.50
13093;DHT22;6612;49.568;11.000;2023-03-01T11:08:33;13.10;30.00
13093;DHT22;6612;49.568;11.000;2023-03-01T11:11:23;12.90;31.40
13093;DHT22;6612;49.568;11.000;2023-03-01T11:13:56;12.70;31.60
13093;DHT22;6612;49.568;11.000;2023-03-01T11:16:26;12.50;30.60
13093;DHT22;6612;49.568;11.000;2023-03-01T11:18:57;12.30;31.70
13093;DHT22;6612;49.568;11.000;2023-03-01T11:21:28;12.10;30.50
13093;DHT22;6612;49.568;11.000;2023-03-01T11:23:57;11.90;31.60
13093;DHT22;6612;49.568;11.000;2023-03-01T11:26:28;11.80;32.00
13093;DHT22;6612;49.568;11.000;2023-03-01T11:28:58;11.60;30.60
13093;DHT22;6612;49.568;11.000;2023-03-01T11:31:27;11.50;31.80
13093;DHT22;6612;49.568;11.000;2023-03-01T11:33:59;11.30;32.30
13093;DHT22;6612;49.568;11.000;2023-03-01T11:36:32;11.20;32.10
13093;DHT22;6612;49.568;11.000;2023-03-01T11:39:11;11.10;32.20
13093;DHT22;6612;49.568;11.000;2023-03-01T11:41:40;11.00;32.30
13093;DHT22;6612;49.568;11.000;2023-03-01T11:44:14;10.90;32.60
13093;DHT22;6612;49.568;11.000;2023-03-01T11:47:10;10.80;32.80
13093;DHT22;6612;49.568;11.000;2023-03-01T11:50:00;10.70;32.70
13093;DHT22;6612;49.568;11.000;2023-03-01T11:52:38;10.70;32.70
13093;DHT22;6612;49.568;11.000;2023-03-01T11:55:23;10.60;33.30
13093;DHT22;6612;49.568;11.000;2023-03-01T11:58:11;10.60;33.40
13093;DHT22;6612;49.568;11.000;2023-03-01T12:01:08;10.70;33.70
13093;DHT22;6612;49.568;11.000;2023-03-01T12:03:52;10.70;33.30
13093;DHT22;6612;49.568;11.000;2023-03-01T12:06:35;10.70;33.70
13093;DHT22;6612;49.568;11.000;2023-03-01T12:09:17;10.70;33.60
13093;DHT22;6612;49.568;11.000;2023-03-01T12:12:00;10.70;33.90
13093;DHT22;6612;49.568;11.000;2023-03-01T12:15:20;10.70;33.90
13093;DHT22;6612;49.568;11.000;2023-03-01T12:18:05;10.70;33.80
13093;DHT22;6612;49.568;11.000;2023-03-01T12:20:42;10.70;33.70
13093;DHT22;6612;49.568;11.000;2023-03-01T12:23:26;10.70;33.90
13093;DHT22;6612;49.568;11.000;2023-03-01T12:26:04;10.80;34.10
13093;DHT22;6612;49.568;11.000;2023-03-01T12:28:55;10.80;34.10
13093;DHT22;6612;49.568;11.000;2023-03-01T12:31:53;10.80;34.00
13093;DHT22;6612;49.568;11.000;2023-03-01T12:34:55;10.80;34.10
13093;DHT22;6612;49.568;11.000;2023-03-01T12:37:32;10.90;34.10
13093;DHT22;6612;49.568;11.000;2023-03-01T12:40:29;10.90;34.20
13093;DHT22;6612;49.568;11.000;2023-03-01T12:43:08;10.90;34.40
13093;DHT22;6612;49.568;11.000;2023-03-01T12:45:49;11.00;34.50
13093;DHT22;6612;49.568;11.000;2023-03-01T12:48:35;11.00;34.50
13093;DHT22;6612;49.568;11.000;2023-03-01T12:51:10;11.10;34.30
13093;DHT22;6612;49.568;11.000;2023-03-01T12:53:40;11.10;34.60
13093;DHT22;6612;49.568;11.000;2023-03-01T12:56:10;11.10;34.50
13093;DHT22;6612;49.568;11.000;2023-03-01T12:58:49;11.10;34.20
13093;DHT22;6612;49.568;11.000;2023-03-01T13:01:28;11.10;34.30
13093;DHT22;6612;49.568;11.000;2023-03-01T13:04:17;11.20;34.30
13093;DHT22;6612;49.568;11.000;2023-03-01T13:06:55;11.20;34.40
13093;DHT22;6612;49.568;11.000;2023-03-01T13:09:29;11.20;34.20
13093;DHT22;6612;49.568;11.000;2023-03-01T13:11:58;11.20;34.60
13093;DHT22;6612;49.568;11.000;2023-03-01T13:14:45;11.20;34.70
13093;DHT22;6612;49.568;11.000;2023-03-01T13:17:39;11.20;34.50
13093;DHT22;6612;49.568;11.000;2023-03-01T13:20:14;11.30;34.60
13093;DHT22;6612;49.568;11.000;2023-03-01T13:22:41;11.30;34.30
13093;DHT22;6612;49.568;11.000;2023-03-01T13:25:14;11.30;34.80
13093;DHT22;6612;49.568;11.000;2023-03-01T13:27:42;11.30;34.60
13093;DHT22;6612;49.568;11.000;2023-03-01T13:30:39;11.30;34.90
13093;DHT22;6612;49.568;11.000;2023-03-01T13:36:09;11.40;34.50
13093;DHT22;6612;49.568;11.000;2023-03-01T13:38:54;11.40;35.50
13093;DHT22;6612;49.568;11.000;2023-03-01T13:41:50;11.50;34.80
13093;DHT22;6612;49.568;11.000;2023-03-01T13:44:23;11.50;34.90
13093;DHT22;6612;49.568;11.000;2023-03-01T13:46:55;11.50;34.80
13093;DHT22;6612;49.568;11.000;2023-03-01T13:49:25;11.50;34.80
13093;DHT22;6612;49.568;11.000;2023-03-01T13:51:53;11.50;35.00
13093;DHT22;6612;49.568;11.000;2023-03-01T13:54:25;11.60;35.10
13093;DHT22;6612;49.568;11.000;2023-03-01T13:56:53;11.60;35.20
13093;DHT22;6612;49.568;11.000;2023-03-01T13:59:22;11.50;35.10
13093;DHT22;6612;49.568;11.000;2023-03-01T14:01:54;11.60;35.30
13093;DHT22;6612;49.568;11.000;2023-03-01T14:04:23;11.60;35.20
13093;DHT22;6612;49.568;11.000;2023-03-01T14:06:51;11.60;35.30
13093;DHT22;6612;49.568;11.000;2023-03-01T14:09:22;11.70;35.40
13093;DHT22;6612;49.568;11.000;2023-03-01T14:12:11;11.70;35.30
13093;DHT22;6612;49.568;11.000;2023-03-01T14:14:48;11.70;35.30
13093;DHT22;6612;49.568;11.000;2023-03-01T14:17:35;11.70;35.50
13093;DHT22;6612;49.568;11.000;2023-03-01T14:20:11;11.80;35.60
13093;DHT22;6612;49.568;11.000;2023-03-01T14:22:41;11.80;35.60
13093;DHT22;6612;49.568;11.000;2023-03-01T14:25:20;11.80;35.60
13093;DHT22;6612;49.568;11.000;2023-03-01T14:27:54;11.80;35.80
13093;DHT22;6612;49.568;11.000;2023-03-01T14:30:23;11.80;35.30
13093;DHT22;6612;49.568;11.000;2023-03-01T14:32:57;11.80;35.50
13093;DHT22;6612;49.568;11.000;2023-03-01T14:35:27;11.80;35.50
13093;DHT22;6612;49.568;11.000;2023-03-01T14:37:54;11.80;35.50
13093;DHT22;6612;49.568;11.000;2023-03-01T14:40:25;11.80;35.50
13093;DHT22;6612;49.568;11.000;2023-03-01T14:42:52;11.80;35.50
13093;DHT22;6612;49.568;11.000;2023-03-01T14:45:20;11.80;35.60
13093;DHT22;6612;49.568;11.000;2023-03-01T14:47:47;11.80;35.60
13093;DHT22;6612;49.568;11.000;2023-03-01T14:50:24;11.70;35.50
13093;DHT22;6612;49.568;11.000;2023-03-01T14:52:54;11.80;35.70
13093;DHT22;6612;49.568;11.000;2023-03-01T14:55:24;11.70;35.60
13093;DHT22;6612;49.568;11.000;2023-03-01T14:57:52;11.70;35.70
13093;DHT22;6612;49.568;11.000;2023-03-01T15:00:22;11.70;35.60
13093;DHT22;6612;49.568;11.000;2023-03-01T15:02:51;11.70;35.60
13093;DHT22;6612;49.568;11.000;2023-03-01T15:05:25;11.70;35.60
13093;DHT22;6612;49.568;11.000;2023-03-01T15:07:53;11.70;35.50
13093;DHT22;6612;49.568;11.000;2023-03-01T15:10:22;11.70;35.70
13093;DHT22;6612;49.568;11.000;2023-03-01T15:12:49;11.70;35.60
13093;DHT22;6612;49.568;11.000;2023-03-01T15:15:38;11.70;35.70
13093;DHT22;6612;49.568;11.000;2023-03-01T15:18:16;11.70;35.80
13093;DHT22;6612;49.568;11.000;2023-03-01T15:20:46;11.70;35.60
13093;DHT22;6612;49.568;11.000;2023-03-01T15:23:20;11.60;35.70
13093;DHT22;6612;49.568;11.000;2023-03-01T15:25:49;11.60;35.80
13093;DHT22;6612;49.568;11.000;2023-03-01T15:28:22;11.60;35.80
13093;DHT22;6612;49.568;11.000;2023-03-01T15:30:54;11.60;36.00
13093;DHT22;6612;49.568;11.000;2023-03-01T15:33:32;11.60;35.80
13093;DHT22;6612;49.568;11.000;2023-03-01T15:36:02;11.60;35.90
13093;DHT22;6612;49.568;11.000;2023-03-01T15:38:32;11.60;35.90
13093;DHT22;6612;49.568;11.000;2023-03-01T15:41:02;11.60;36.00
13093;DHT22;6612;49.568;11.000;2023-03-01T15:43:42;11.60;36.00
13093;DHT22;6612;49.568;11.000;2023-03-01T15:46:27;11.60;36.00
13093;DHT22;6612;49.568;11.000;2023-03-01T15:48:56;11.60;36.70
13093;DHT22;6612;49.568;11.000;2023-03-01T15:51:30;11.50;36.00
13093;DHT22;6612;49.568;11.000;2023-03-01T15:53:59;11.50;36.00
13093;DHT22;6612;49.568;11.000;2023-03-01T15:56:27;11.50;36.10
13093;DHT22;6612;49.568;11.000;2023-03-01T15:58:58;11.50;36.00
13093;DHT22;6612;49.568;11.000;2023-03-01T16:01:26;11.50;36.10
13093;DHT22;6612;49.568;11.000;2023-03-01T16:03:53;11.40;36.00
13093;DHT22;6612;49.568;11.000;2023-03-01T16:06:20;11.40;36.00